Time;durP1;ratioP1;P1;durP2;ratioP2;P2;SDS_P1;SDS_P2;PMS_P1;PMS_P2;Temp;Humidity;BMP_temperature;BMP_pressure;BME280_temperature;BME280_humidity;BME280_pressure;Samples;Min_cycle;Max_cycle;Signal;HPM_P1;HPM_P2
2023/09/28 00:02:17;;;;;;;5.00;4.60;;;;;;;;;;5091978;28;20782;-62
2023/09/28 00:04:43;;;;;;;5.87;5.37;;;;;;;;;;5092777;28;20404;-62
2023/09/28 00:07:14;;;;;;;5.73;5.20;;;;;;;;;;5092840;28;20419;-62
2023/09/28 00:09:40;;;;;;;6.20;5.30;;;;;;;;;;5093023;28;20403;-62
2023/09/28 00:12:06;;;;;;;4.50;4.30;;;;;;;;;;5092868;28;20404;-62
2023/09/28 00:14:32;;;;;;;5.30;5.00;;;;;;;;;;5091560;28;20459;-62
2023/09/28 00:16:58;;;;;;;5.13;4.73;;;;;;;;;;5092634;28;20797;-62
2023/09/28 00:19:25;;;;;;;5.73;5.23;;;;;;;;;;5092839;28;20438;-62
2023/09/28 00:21:51;;;;;;;5.47;5.10;;;;;;;;;;5092510;28;20471;-62
2023/09/28 00:24:17;;;;;;;5.50;5.10;;;;;;;;;;5091544;28;20420;-62
2023/09/28 00:26:47;;;;;;;5.17;4.70;;;;;;;;;;5092908;28;20934;-62
2023/09/28 00:29:16;;;;;;;5.70;5.30;;;;;;;;;;5092745;28;20760;-62
2023/09/28 00:31:42;;;;;;;6.57;5.83;;;;;;;;;;5092785;28;20787;-62
2023/09/28 00:34:10;;;;;;;9.17;5.40;;;;;;;;;;5092388;28;20481;-62
2023/09/28 00:36:38;;;;;;;6.97;5.67;;;;;;;;;;5092335;28;20416;-62
2023/09/28 00:39:05;;;;;;;4.70;4.43;;;;;;;;;;5091863;28;20753;-62
2023/09/28 00:41:31;;;;;;;5.40;5.00;;;;;;;;;;5092078;28;21013;-62
2023/09/28 00:43:57;;;;;;;5.43;4.80;;;;;;;;;;5092178;28;20502;-62
2023/09/28 00:46:23;;;;;;;5.63;5.17;;;;;;;;;;5092345;28;20881;-62
2023/09/28 00:48:54;;;;;;;5.47;5.07;;;;;;;;;;5092323;28;20492;-62
2023/09/28 00:51:20;;;;;;;6.00;5.50;;;;;;;;;;5092366;28;20415;-62
2023/09/28 00:53:46;;;;;;;6.27;5.77;;;;;;;;;;5091269;28;20432;-62
2023/09/28 00:56:13;;;;;;;5.57;5.17;;;;;;;;;;5091370;28;20783;-62
2023/09/28 00:58:39;;;;;;;5.50;5.10;;;;;;;;;;5090720;28;20444;-62
2023/09/28 01:01:10;;;;;;;5.77;5.27;;;;;;;;;;5091834;28;20486;-62
2023/09/28 01:03:36;;;;;;;6.00;5.40;;;;;;;;;;5092315;28;20449;-62
2023/09/28 01:06:07;;;;;;;11.43;5.57;;;;;;;;;;5092236;28;20851;-62
2023/09/28 01:08:33;;;;;;;5.37;5.07;;;;;;;;;;5092029;28;20427;-61
2023/09/28 01:10:59;;;;;;;5.23;4.83;;;;;;;;;;5091921;28;20439;-62
2023/09/28 01:13:27;;;;;;;6.07;4.90;;;;;;;;;;5092438;28;20406;-62
2023/09/28 01:15:53;;;;;;;5.93;4.87;;;;;;;;;;5091937;28;20467;-59
2023/09/28 01:18:19;;;;;;;9.10;5.80;;;;;;;;;;5091610;28;20523;-59
2023/09/28 01:20:46;;;;;;;4.77;4.23;;;;;;;;;;5092105;28;20839;-59
2023/09/28 01:23:13;;;;;;;4.90;4.60;;;;;;;;;;5091250;28;20432;-59
2023/09/28 01:25:39;;;;;;;5.17;4.63;;;;;;;;;;5091928;28;20407;-59
2023/09/28 01:28:06;;;;;;;5.23;4.73;;;;;;;;;;5091330;28;20426;-59
2023/09/28 01:30:32;;;;;;;4.40;4.20;;;;;;;;;;5091799;28;20907;-59
2023/09/28 01:32:58;;;;;;;4.70;4.40;;;;;;;;;;5091689;28;20447;-59
2023/09/28 01:35:24;;;;;;;6.93;5.13;;;;;;;;;;5091784;28;20416;-59
2023/09/28 01:38:02;;;;;;;5.40;4.90;;;;;;;;;;5091767;28;20436;-59
2023/09/28 01:40:28;;;;;;;5.43;4.93;;;;;;;;;;5091686;28;21030;-59
2023/09/28 01:42:55;;;;;;;6.50;5.80;;;;;;;;;;5091924;28;20498;-59
2023/09/28 01:45:21;;;;;;;9.33;5.17;;;;;;;;;;5091635;28;20765;-59
2023/09/28 01:47:51;;;;;;;11.13;5.43;;;;;;;;;;5091616;28;20418;-58
2023/09/28 01:50:18;;;;;;;7.53;5.50;;;;;;;;;;5092412;28;20512;-59
2023/09/28 01:52:47;;;;;;;8.73;5.70;;;;;;;;;;5095248;28;20447;-59
2023/09/28 01:55:13;;;;;;;5.57;5.27;;;;;;;;;;5095481;28;20482;-59
2023/09/28 01:57:41;;;;;;;6.07;5.50;;;;;;;;;;5095607;28;20421;-59
2023/09/28 02:00:20;;;;;;;10.13;4.83;;;;;;;;;;5094906;28;20507;-59
2023/09/28 02:02:48;;;;;;;5.90;5.30;;;;;;;;;;5095253;28;20442;-59
2023/09/28 02:05:18;;;;;;;6.53;5.17;;;;;;;;;;5095226;28;20427;-59
2023/09/28 02:07:50;;;;;;;5.10;4.77;;;;;;;;;;5095353;28;20416;-58
2023/09/28 02:10:16;;;;;;;12.30;5.17;;;;;;;;;;5095079;28;20485;-59
2023/09/28 02:12:46;;;;;;;5.97;5.10;;;;;;;;;;5095256;28;20451;-59
2023/09/28 02:15:14;;;;;;;5.80;5.37;;;;;;;;;;5095026;28;20444;-58
2023/09/28 02:17:41;;;;;;;9.23;5.43;;;;;;;;;;5094676;28;20812;-60
2023/09/28 02:20:10;;;;;;;6.80;5.30;;;;;;;;;;5094677;28;20886;-59
2023/09/28 02:22:43;;;;;;;6.57;5.90;;;;;;;;;;5093703;28;20497;-59
2023/09/28 02:25:09;;;;;;;7.33;5.70;;;;;;;;;;5093801;28;20424;-59
2023/09/28 02:27:38;;;;;;;8.07;5.90;;;;;;;;;;5094675;28;20549;-59
2023/09/28 02:30:05;;;;;;;11.20;5.33;;;;;;;;;;5094714;28;20412;-59
2023/09/28 02:32:33;;;;;;;6.43;5.13;;;;;;;;;;5094700;28;20442;-58
2023/09/28 02:35:01;;;;;;;6.60;5.80;;;;;;;;;;5094778;28;20436;-59
2023/09/28 02:37:27;;;;;;;11.43;5.33;;;;;;;;;;5093490;28;20427;-59
2023/09/28 02:39:53;;;;;;;5.97;5.57;;;;;;;;;;5094242;28;20424;-59
2023/09/28 02:42:19;;;;;;;5.87;4.87;;;;;;;;;;5095080;28;20417;-59
2023/09/28 02:44:45;;;;;;;7.97;5.60;;;;;;;;;;5093305;28;20451;-59
2023/09/28 02:47:13;;;;;;;7.20;5.80;;;;;;;;;;5094497;28;20423;-59
2023/09/28 02:49:39;;;;;;;6.10;5.57;;;;;;;;;;5094248;28;20413;-59
2023/09/28 02:52:10;;;;;;;7.27;5.60;;;;;;;;;;5094170;28;20782;-59
2023/09/28 02:54:36;;;;;;;6.43;5.60;;;;;;;;;;5094744;28;20409;-59
2023/09/28 02:57:02;;;;;;;5.80;5.20;;;;;;;;;;5093979;28;20416;-59
2023/09/28 02:59:31;;;;;;;6.07;5.50;;;;;;;;;;5094146;28;20470;-59
2023/09/28 03:01:57;;;;;;;5.87;5.23;;;;;;;;;;5093559;28;20498;-59
2023/09/28 03:04:25;;;;;;;6.20;5.70;;;;;;;;;;5094220;28;20819;-59
2023/09/28 03:06:52;;;;;;;6.00;5.40;;;;;;;;;;5094090;28;20482;-59
2023/09/28 03:09:18;;;;;;;5.23;4.87;;;;;;;;;;5094057;28;20789;-58
2023/09/28 03:11:45;;;;;;;11.03;5.53;;;;;;;;;;5093864;28;20781;-59
2023/09/28 03:14:11;;;;;;;5.40;5.00;;;;;;;;;;5093728;28;20435;-59
2023/09/28 03:16:40;;;;;;;8.90;4.90;;;;;;;;;;5093845;28;20439;-59
2023/09/28 03:19:07;;;;;;;5.63;5.20;;;;;;;;;;5093464;28;20464;-59
2023/09/28 03:21:35;;;;;;;6.47;5.87;;;;;;;;;;5093949;28;20459;-59
2023/09/28 03:24:03;;;;;;;5.53;5.13;;;;;;;;;;5093727;28;20408;-59
2023/09/28 03:26:33;;;;;;;6.27;5.67;;;;;;;;;;5093554;28;20427;-59
2023/09/28 03:28:59;;;;;;;7.60;5.57;;;;;;;;;;5093707;28;20408;-59
2023/09/28 03:31:27;;;;;;;6.77;5.23;;;;;;;;;;5093749;28;20417;-59
2023/09/28 03:33:53;;;;;;;7.00;5.03;;;;;;;;;;5093416;28;20407;-59
2023/09/28 03:36:19;;;;;;;6.90;5.20;;;;;;;;;;5092348;28;20454;-59
2023/09/28 03:38:46;;;;;;;12.70;5.20;;;;;;;;;;5093515;28;20426;-59
2023/09/28 03:41:12;;;;;;;6.00;5.07;;;;;;;;;;5093371;28;20474;-59
2023/09/28 03:43:39;;;;;;;8.53;6.17;;;;;;;;;;5093337;28;20419;-59
2023/09/28 03:46:07;;;;;;;6.10;5.60;;;;;;;;;;5093090;28;20816;-59
2023/09/28 03:48:35;;;;;;;6.30;5.70;;;;;;;;;;5093187;28;20434;-59
2023/09/28 03:51:02;;;;;;;6.20;5.50;;;;;;;;;;5092036;28;20443;-59
2023/09/28 03:53:27;;;;;;;5.70;5.30;;;;;;;;;;5093151;28;20438;-59
2023/09/28 03:55:54;;;;;;;5.43;4.90;;;;;;;;;;5093216;28;20949;-59
2023/09/28 03:58:21;;;;;;;5.40;4.87;;;;;;;;;;5092186;28;20506;-59
2023/09/28 04:00:48;;;;;;;9.20;5.50;;;;;;;;;;5092248;28;20458;-59
2023/09/28 04:03:16;;;;;;;6.93;4.87;;;;;;;;;;5092930;28;20462;-59
2023/09/28 04:05:45;;;;;;;6.50;6.00;;;;;;;;;;5092829;28;20399;-59
2023/09/28 04:08:11;;;;;;;5.90;5.10;;;;;;;;;;5092963;28;20414;-59
2023/09/28 04:10:37;;;;;;;7.43;6.70;;;;;;;;;;5092897;28;20420;-59
2023/09/28 04:13:05;;;;;;;5.70;5.30;;;;;;;;;;5092334;28;20457;-59
2023/09/28 04:15:31;;;;;;;12.53;5.80;;;;;;;;;;5092176;28;20435;-59
2023/09/28 04:17:57;;;;;;;5.93;5.50;;;;;;;;;;5092797;28;20836;-59
2023/09/28 04:20:23;;;;;;;8.50;5.87;;;;;;;;;;5092626;28;20526;-58
2023/09/28 04:22:50;;;;;;;6.47;5.83;;;;;;;;;;5092752;28;20776;-59
2023/09/28 04:25:18;;;;;;;8.53;6.07;;;;;;;;;;5092484;28;20775;-59
2023/09/28 04:27:44;;;;;;;6.40;5.77;;;;;;;;;;5093001;28;20417;-59
2023/09/28 04:30:13;;;;;;;10.50;6.93;;;;;;;;;;5092577;28;20509;-59
2023/09/28 04:32:39;;;;;;;12.70;9.73;;;;;;;;;;5092450;28;20458;-59
2023/09/28 04:35:06;;;;;;;6.20;5.63;;;;;;;;;;5092312;28;20426;-59
2023/09/28 04:37:32;;;;;;;16.00;13.27;;;;;;;;;;5090812;28;20984;-59
2023/09/28 04:40:00;;;;;;;23.43;18.20;;;;;;;;;;5090551;28;20410;-59
2023/09/28 04:42:26;;;;;;;7.83;6.30;;;;;;;;;;5091892;28;20439;-59
2023/09/28 04:44:54;;;;;;;10.93;6.10;;;;;;;;;;5091748;28;20513;-59
2023/09/28 04:47:23;;;;;;;9.23;6.67;;;;;;;;;;5092522;28;20416;-59
2023/09/28 04:49:49;;;;;;;6.30;4.87;;;;;;;;;;5092285;28;20519;-59
2023/09/28 04:52:14;;;;;;;6.70;6.10;;;;;;;;;;5092349;28;20497;-59
2023/09/28 04:54:41;;;;;;;6.30;5.40;;;;;;;;;;5092049;28;20468;-59
2023/09/28 04:57:07;;;;;;;7.53;6.43;;;;;;;;;;5092772;28;20410;-59
2023/09/28 04:59:40;;;;;;;6.60;5.83;;;;;;;;;;5092374;28;20465;-59
2023/09/28 05:02:06;;;;;;;6.83;5.77;;;;;;;;;;5092120;28;20462;-59
2023/09/28 05:04:32;;;;;;;7.47;5.37;;;;;;;;;;5092071;28;20501;-58
2023/09/28 05:07:01;;;;;;;15.30;12.47;;;;;;;;;;5092330;28;20468;-59
2023/09/28 05:09:29;;;;;;;40.87;31.10;;;;;;;;;;5091913;28;20408;-59
2023/09/28 05:11:59;;;;;;;5.80;5.47;;;;;;;;;;5092110;28;20418;-56
2023/09/28 05:14:27;;;;;;;5.73;5.27;;;;;;;;;;5092159;28;20410;-57
2023/09/28 05:16:56;;;;;;;99.43;69.03;;;;;;;;;;5092032;28;20435;-56
2023/09/28 05:19:25;;;;;;;22.63;16.53;;;;;;;;;;5092448;28;20415;-56
2023/09/28 05:21:51;;;;;;;9.07;6.90;;;;;;;;;;5092151;28;20500;-57
2023/09/28 05:24:20;;;;;;;11.90;5.40;;;;;;;;;;5092016;28;20427;-57
2023/09/28 05:26:46;;;;;;;13.33;6.40;;;;;;;;;;5095597;28;20429;-57
2023/09/28 05:29:12;;;;;;;11.23;6.30;;;;;;;;;;5096512;28;20467;-57
2023/09/28 05:31:38;;;;;;;17.23;5.93;;;;;;;;;;5096319;28;20908;-58
2023/09/28 05:34:06;;;;;;;7.33;6.33;;;;;;;;;;5096206;28;20795;-58
2023/09/28 05:36:34;;;;;;;37.10;28.47;;;;;;;;;;5094497;28;20459;-58
2023/09/28 05:38:59;;;;;;;7.43;6.70;;;;;;;;;;5095957;28;20434;-58
2023/09/28 05:41:28;;;;;;;6.70;5.50;;;;;;;;;;5095606;28;20554;-58
2023/09/28 05:43:56;;;;;;;9.43;6.30;;;;;;;;;;5096335;28;20413;-58
2023/09/28 05:46:22;;;;;;;5.87;5.37;;;;;;;;;;5095792;28;20442;-58
2023/09/28 05:48:51;;;;;;;7.50;6.47;;;;;;;;;;5096008;28;20403;-57
2023/09/28 05:51:17;;;;;;;6.50;5.90;;;;;;;;;;5095351;28;20496;-58
2023/09/28 05:53:43;;;;;;;5.90;5.40;;;;;;;;;;5095912;28;20418;-58
2023/09/28 05:56:09;;;;;;;11.53;6.10;;;;;;;;;;5094844;28;20411;-58
2023/09/28 05:58:35;;;;;;;7.67;5.60;;;;;;;;;;5096063;28;20810;-58
2023/09/28 06:01:09;;;;;;;6.80;6.20;;;;;;;;;;5091850;28;20462;-57
2023/09/28 06:03:38;;;;;;;13.43;6.50;;;;;;;;;;5080098;28;20438;-58
2023/09/28 06:06:17;;;;;;;9.00;6.33;;;;;;;;;;5095408;28;20449;-58
2023/09/28 06:08:44;;;;;;;11.93;6.33;;;;;;;;;;5095323;28;20445;-58
2023/09/28 06:11:13;;;;;;;7.20;6.50;;;;;;;;;;5095476;28;20404;-58
2023/09/28 06:13:43;;;;;;;14.77;7.00;;;;;;;;;;5086966;28;20518;-58
2023/09/28 06:16:10;;;;;;;9.20;6.87;;;;;;;;;;5075400;28;20472;-58
2023/09/28 06:18:36;;;;;;;11.03;8.20;;;;;;;;;;5088359;28;20450;-57
2023/09/28 06:21:02;;;;;;;12.90;7.63;;;;;;;;;;5094106;28;20454;-57
2023/09/28 06:23:28;;;;;;;9.03;7.80;;;;;;;;;;5095206;28;20548;-58
2023/09/28 06:25:54;;;;;;;11.80;7.63;;;;;;;;;;5095281;28;20470;-58
2023/09/28 06:28:23;;;;;;;16.60;9.27;;;;;;;;;;5095102;28;20426;-58
2023/09/28 06:30:52;;;;;;;13.47;8.80;;;;;;;;;;5094699;28;20439;-58
2023/09/28 06:33:18;;;;;;;11.07;8.63;;;;;;;;;;5094857;28;20438;-58
2023/09/28 06:35:44;;;;;;;9.30;7.50;;;;;;;;;;5094884;28;20418;-58
2023/09/28 06:38:11;;;;;;;9.63;6.97;;;;;;;;;;5093787;28;20406;-57
2023/09/28 06:40:38;;;;;;;7.97;6.17;;;;;;;;;;5094759;28;20535;-57
2023/09/28 06:43:04;;;;;;;7.70;6.40;;;;;;;;;;5093266;28;20496;-57
2023/09/28 06:45:33;;;;;;;7.73;6.90;;;;;;;;;;5094799;28;20420;-58
2023/09/28 06:48:01;;;;;;;7.83;5.93;;;;;;;;;;5094841;28;20581;-58
2023/09/28 06:50:29;;;;;;;8.53;6.20;;;;;;;;;;5087503;28;20439;-57
2023/09/28 06:52:57;;;;;;;7.00;6.40;;;;;;;;;;5073945;28;20443;-58
2023/09/28 06:55:23;;;;;;;6.63;6.00;;;;;;;;;;5090731;28;20444;-57
2023/09/28 06:57:50;;;;;;;6.90;6.27;;;;;;;;;;5092490;28;20446;-56
2023/09/28 07:00:20;;;;;;;8.40;7.47;;;;;;;;;;5092386;28;20416;-57
2023/09/28 07:02:47;;;;;;;9.63;6.50;;;;;;;;;;5092054;28;20439;-57
2023/09/28 07:05:22;;;;;;;6.40;5.90;;;;;;;;;;5092685;28;20900;-57
2023/09/28 07:07:50;;;;;;;10.03;7.20;;;;;;;;;;5092506;28;20416;-57
2023/09/28 07:10:17;;;;;;;31.43;8.60;;;;;;;;;;5093320;28;20495;-57
2023/09/28 07:12:49;;;;;;;25.03;8.20;;;;;;;;;;5093364;28;20793;-57
2023/09/28 07:15:15;;;;;;;21.27;7.30;;;;;;;;;;5093251;28;20396;-57
2023/09/28 07:17:41;;;;;;;14.93;6.23;;;;;;;;;;5091816;28;20935;-57
2023/09/28 07:20:07;;;;;;;12.13;6.10;;;;;;;;;;5092712;28;20448;-57
2023/09/28 07:22:36;;;;;;;9.50;6.43;;;;;;;;;;5092806;28;20424;-57
2023/09/28 07:25:02;;;;;;;23.73;6.30;;;;;;;;;;5092978;28;20449;-57
2023/09/28 07:27:32;;;;;;;16.57;5.97;;;;;;;;;;5092524;28;20410;-56
2023/09/28 07:29:59;;;;;;;12.40;5.67;;;;;;;;;;5091515;28;20908;-57
2023/09/28 07:32:26;;;;;;;6.33;5.57;;;;;;;;;;5092517;28;20422;-57
2023/09/28 07:34:52;;;;;;;12.47;5.63;;;;;;;;;;5091167;28;20439;-57
2023/09/28 07:37:18;;;;;;;9.10;5.37;;;;;;;;;;5092297;28;20460;-57
2023/09/28 07:39:44;;;;;;;8.67;5.83;;;;;;;;;;5092615;28;20848;-57
2023/09/28 07:42:13;;;;;;;5.80;5.20;;;;;;;;;;5092442;28;20461;-57
2023/09/28 07:44:40;;;;;;;8.47;5.73;;;;;;;;;;5092483;28;20784;-57
2023/09/28 07:47:08;;;;;;;5.73;4.90;;;;;;;;;;5092388;28;20469;-57
2023/09/28 07:49:34;;;;;;;7.40;5.27;;;;;;;;;;5092054;28;20411;-57
2023/09/28 07:52:02;;;;;;;5.07;4.60;;;;;;;;;;5092548;28;20505;-57
2023/09/28 07:54:29;;;;;;;5.40;5.00;;;;;;;;;;5092245;28;20475;-58
2023/09/28 07:56:55;;;;;;;6.03;4.97;;;;;;;;;;5091690;28;20419;-58
2023/09/28 07:59:21;;;;;;;5.00;4.60;;;;;;;;;;5089253;28;20435;-58
2023/09/28 08:01:48;;;;;;;6.63;4.50;;;;;;;;;;5089974;28;20486;-58
2023/09/28 08:04:14;;;;;;;5.00;4.70;;;;;;;;;;5089215;28;20918;-58
2023/09/28 08:06:42;;;;;;;23.07;14.80;;;;;;;;;;5089302;28;20408;-58
2023/09/28 08:09:13;;;;;;;6.37;5.77;;;;;;;;;;5088889;28;20484;-58
2023/09/28 08:11:39;;;;;;;16.47;11.93;;;;;;;;;;5089837;28;20411;-58
2023/09/28 08:14:12;;;;;;;12.60;9.20;;;;;;;;;;5089880;28;20440;-58
2023/09/28 08:16:38;;;;;;;5.77;4.60;;;;;;;;;;5091530;28;20406;-59
2023/09/28 08:19:07;;;;;;;5.57;5.10;;;;;;;;;;5091691;28;20944;-58
2023/09/28 08:21:37;;;;;;;7.40;5.50;;;;;;;;;;5091810;28;20554;-59
2023/09/28 08:24:03;;;;;;;6.80;5.57;;;;;;;;;;5091563;28;20440;-58
2023/09/28 08:26:30;;;;;;;12.70;5.13;;;;;;;;;;5091799;28;20473;-57
2023/09/28 08:29:00;;;;;;;5.40;5.00;;;;;;;;;;5090432;28;20940;-57
2023/09/28 08:31:27;;;;;;;6.97;5.00;;;;;;;;;;5091762;28;20429;-57
2023/09/28 08:33:53;;;;;;;4.80;4.47;;;;;;;;;;5090254;28;20970;-57
2023/09/28 08:36:21;;;;;;;4.20;4.00;;;;;;;;;;5090963;28;20439;-58
2023/09/28 08:38:47;;;;;;;5.10;4.70;;;;;;;;;;5091284;28;20419;-58
2023/09/28 08:41:16;;;;;;;4.60;4.30;;;;;;;;;;5091930;28;20497;-58
2023/09/28 08:43:43;;;;;;;8.87;4.47;;;;;;;;;;5090297;28;20444;-58
2023/09/28 08:46:14;;;;;;;5.03;4.40;;;;;;;;;;5091616;28;20440;-58
2023/09/28 08:48:50;;;;;;;8.20;5.00;;;;;;;;;;5090140;28;20469;-58
2023/09/28 08:51:19;;;;;;;8.73;5.40;;;;;;;;;;5091595;28;20483;-58
2023/09/28 08:53:50;;;;;;;9.03;4.37;;;;;;;;;;5091464;28;20418;-58
2023/09/28 08:56:16;;;;;;;4.47;4.27;;;;;;;;;;5091299;28;20463;-58
2023/09/28 08:58:43;;;;;;;4.57;4.30;;;;;;;;;;5090917;28;20410;-58
2023/09/28 09:01:09;;;;;;;7.37;4.23;;;;;;;;;;5093957;28;20498;-58
2023/09/28 09:03:35;;;;;;;4.53;4.23;;;;;;;;;;5095659;28;20835;-57
2023/09/28 09:06:04;;;;;;;4.40;3.93;;;;;;;;;;5095584;28;20512;-58
2023/09/28 09:08:34;;;;;;;4.53;4.27;;;;;;;;;;5095891;28;20802;-58
2023/09/28 09:11:00;;;;;;;6.20;4.47;;;;;;;;;;5096584;28;20458;-58
2023/09/28 09:13:26;;;;;;;4.43;4.13;;;;;;;;;;5096378;28;20459;-58
2023/09/28 09:15:52;;;;;;;4.53;4.23;;;;;;;;;;5096377;28;20462;-58
2023/09/28 09:18:18;;;;;;;12.30;4.60;;;;;;;;;;5096022;28;20502;-60
2023/09/28 09:20:46;;;;;;;4.53;4.23;;;;;;;;;;5095399;28;20496;-61
2023/09/28 09:23:12;;;;;;;4.17;3.90;;;;;;;;;;5094358;28;20414;-61
2023/09/28 09:25:47;;;;;;;4.03;3.67;;;;;;;;;;5096426;28;20417;-61
2023/09/28 09:28:13;;;;;;;6.73;4.10;;;;;;;;;;5096795;28;20429;-62
2023/09/28 09:30:41;;;;;;;4.83;4.40;;;;;;;;;;5096570;28;20415;-65
2023/09/28 09:33:10;;;;;;;6.10;4.23;;;;;;;;;;5095026;28;20421;-64
2023/09/28 09:35:38;;;;;;;4.83;4.33;;;;;;;;;;5095323;28;20420;-66
2023/09/28 09:38:04;;;;;;;7.77;4.40;;;;;;;;;;5095453;28;20421;-68
2023/09/28 09:40:31;;;;;;;4.63;4.20;;;;;;;;;;5094991;28;20464;-68
2023/09/28 09:43:06;;;;;;;5.00;4.20;;;;;;;;;;5094709;28;20436;-66
2023/09/28 09:45:36;;;;;;;5.60;4.87;;;;;;;;;;5095275;28;20413;-66
2023/09/28 09:48:05;;;;;;;4.77;4.50;;;;;;;;;;5093272;28;20846;-67
2023/09/28 09:50:32;;;;;;;4.53;4.10;;;;;;;;;;5094063;28;20446;-65
2023/09/28 09:52:58;;;;;;;5.73;3.70;;;;;;;;;;5095204;28;20803;-63
2023/09/28 09:55:25;;;;;;;8.97;4.40;;;;;;;;;;5095719;28;20421;-65
2023/09/28 09:57:54;;;;;;;4.73;4.33;;;;;;;;;;5095588;28;20445;-62
2023/09/28 10:00:24;;;;;;;5.30;4.03;;;;;;;;;;5095753;28;20904;-65
2023/09/28 10:02:54;;;;;;;5.20;4.70;;;;;;;;;;5095476;28;20441;-63
2023/09/28 10:05:21;;;;;;;12.93;4.60;;;;;;;;;;5094552;28;20421;-64
2023/09/28 10:07:50;;;;;;;7.23;4.33;;;;;;;;;;5095713;28;20435;-64
2023/09/28 10:10:18;;;;;;;4.23;3.93;;;;;;;;;;5095525;28;20503;-63
2023/09/28 10:12:45;;;;;;;4.03;3.73;;;;;;;;;;5095410;28;20808;-64
2023/09/28 10:15:13;;;;;;;8.03;3.63;;;;;;;;;;5095468;28;20554;-64
2023/09/28 10:17:40;;;;;;;5.20;3.70;;;;;;;;;;5095353;28;20466;-64
2023/09/28 10:20:07;;;;;;;3.57;3.30;;;;;;;;;;5095247;28;20416;-63
2023/09/28 10:22:33;;;;;;;3.80;3.50;;;;;;;;;;5077138;28;20476;-64
2023/09/28 10:24:59;;;;;;;3.83;3.60;;;;;;;;;;5093808;28;20440;-63
2023/09/28 10:27:24;;;;;;;13.43;4.53;;;;;;;;;;5094341;28;20502;-63
2023/09/28 10:29:51;;;;;;;6.43;3.80;;;;;;;;;;5095325;28;20401;-63
2023/09/28 10:32:40;;;;;;;3.80;3.60;;;;;;;;;;5095369;28;20410;-63
2023/09/28 10:35:26;;;;;;;5.20;4.20;;;;;;;;;;5094851;28;20973;-66
2023/09/28 10:38:12;;;;;;;5.83;4.63;;;;;;;;;;5079726;28;20461;-64
2023/09/28 10:40:38;;;;;;;6.70;4.93;;;;;;;;;;5087136;28;20487;-64
2023/09/28 10:43:10;;;;;;;5.00;4.60;;;;;;;;;;5092564;28;20446;-64
2023/09/28 10:45:37;;;;;;;5.20;4.80;;;;;;;;;;5095086;28;20419;-64
2023/09/28 10:48:03;;;;;;;3.93;3.57;;;;;;;;;;5094706;28;20429;-64
2023/09/28 10:50:32;;;;;;;5.27;4.77;;;;;;;;;;5082572;28;20453;-64
2023/09/28 10:52:58;;;;;;;5.50;4.07;;;;;;;;;;5087996;28;20457;-64
2023/09/28 10:55:24;;;;;;;5.13;4.30;;;;;;;;;;5094266;28;20432;-64
2023/09/28 10:57:51;;;;;;;9.43;4.80;;;;;;;;;;5094159;28;20425;-64
2023/09/28 11:00:18;;;;;;;5.23;4.27;;;;;;;;;;5094329;28;20893;-64
2023/09/28 11:02:44;;;;;;;8.50;4.20;;;;;;;;;;5093772;28;20849;-64
2023/09/28 11:05:10;;;;;;;11.10;4.63;;;;;;;;;;5091464;28;20809;-64
2023/09/28 11:07:36;;;;;;;9.83;4.40;;;;;;;;;;5091219;28;20768;-64
2023/09/28 11:10:05;;;;;;;4.60;4.20;;;;;;;;;;5090897;28;20533;-67
2023/09/28 11:12:32;;;;;;;4.30;4.13;;;;;;;;;;5092225;28;20421;-64
2023/09/28 11:14:58;;;;;;;4.47;3.47;;;;;;;;;;5092522;28;20413;-66
2023/09/28 11:17:24;;;;;;;7.90;4.23;;;;;;;;;;5092606;28;20436;-66
2023/09/28 11:19:51;;;;;;;4.00;3.80;;;;;;;;;;5093082;28;20477;-64
2023/09/28 11:22:18;;;;;;;4.53;4.23;;;;;;;;;;5092075;28;20471;-63
2023/09/28 11:24:44;;;;;;;4.83;3.87;;;;;;;;;;5092298;28;20504;-62
2023/09/28 11:27:10;;;;;;;6.00;4.70;;;;;;;;;;5093289;28;20934;-62
2023/09/28 11:29:36;;;;;;;5.20;4.70;;;;;;;;;;5092384;28;20838;-62
2023/09/28 11:32:04;;;;;;;4.80;4.30;;;;;;;;;;5092513;28;20412;-63
2023/09/28 11:34:33;;;;;;;5.37;4.80;;;;;;;;;;5092415;28;20428;-62
2023/09/28 11:36:59;;;;;;;15.90;4.20;;;;;;;;;;5092357;28;20425;-62
2023/09/28 11:39:26;;;;;;;4.07;3.77;;;;;;;;;;5091094;28;20487;-63
2023/09/28 11:41:58;;;;;;;4.30;4.10;;;;;;;;;;5090785;28;20504;-62
2023/09/28 11:44:26;;;;;;;6.27;4.80;;;;;;;;;;5092044;28;20516;-62
2023/09/28 11:46:54;;;;;;;6.33;4.20;;;;;;;;;;5092107;28;21093;-63
2023/09/28 11:49:23;;;;;;;4.33;4.00;;;;;;;;;;5092031;28;20842;-62
2023/09/28 11:51:54;;;;;;;4.57;4.37;;;;;;;;;;5092274;28;20437;-63
2023/09/28 11:54:20;;;;;;;4.87;4.37;;;;;;;;;;5092246;28;20437;-63
2023/09/28 11:56:52;;;;;;;5.30;3.40;;;;;;;;;;5092412;28;20413;-63
2023/09/28 11:59:20;;;;;;;5.40;3.53;;;;;;;;;;5092227;28;20408;-63
2023/09/28 12:01:49;;;;;;;6.70;4.47;;;;;;;;;;5091975;28;20883;-63
2023/09/28 12:04:15;;;;;;;4.37;4.07;;;;;;;;;;5091946;28;20413;-63
2023/09/28 12:06:45;;;;;;;11.27;4.10;;;;;;;;;;5091835;28;20441;-66
2023/09/28 12:09:13;;;;;;;6.77;4.83;;;;;;;;;;5090992;28;20421;-67
2023/09/28 12:11:42;;;;;;;12.60;4.80;;;;;;;;;;5090335;28;20448;-66
2023/09/28 12:14:08;;;;;;;3.73;3.50;;;;;;;;;;5091339;28;20920;-64
2023/09/28 12:16:37;;;;;;;4.70;4.30;;;;;;;;;;5090909;28;21699;-63
2023/09/28 12:19:03;;;;;;;8.53;3.73;;;;;;;;;;5088508;28;20443;-63
2023/09/28 12:21:29;;;;;;;4.53;4.33;;;;;;;;;;5089958;28;20468;-63
2023/09/28 12:23:55;;;;;;;3.90;3.70;;;;;;;;;;5090928;28;20432;-62
2023/09/28 12:26:22;;;;;;;4.03;3.70;;;;;;;;;;5091358;28;20466;-62
2023/09/28 12:28:50;;;;;;;3.90;3.73;;;;;;;;;;5091918;28;20419;-63
2023/09/28 12:31:17;;;;;;;6.70;3.50;;;;;;;;;;5091652;28;20443;-63
2023/09/28 12:33:43;;;;;;;6.33;4.00;;;;;;;;;;5090805;28;20764;-63
2023/09/28 12:36:09;;;;;;;4.00;3.80;;;;;;;;;;5090222;28;20415;-63
2023/09/28 12:38:35;;;;;;;4.80;4.40;;;;;;;;;;5090884;28;20496;-63
2023/09/28 12:41:04;;;;;;;4.00;3.70;;;;;;;;;;5091482;28;20817;-63
2023/09/28 12:43:31;;;;;;;4.97;4.50;;;;;;;;;;5091105;28;20845;-63
2023/09/28 12:45:57;;;;;;;4.23;4.07;;;;;;;;;;5091076;28;20405;-63
2023/09/28 12:48:24;;;;;;;4.63;4.23;;;;;;;;;;5090078;28;20479;-63
2023/09/28 12:50:50;;;;;;;3.33;3.23;;;;;;;;;;5091018;28;20452;-63
2023/09/28 12:53:17;;;;;;;3.60;3.50;;;;;;;;;;5090511;28;20418;-64
2023/09/28 12:55:43;;;;;;;4.67;4.27;;;;;;;;;;5089945;28;20413;-63
2023/09/28 12:58:09;;;;;;;4.93;3.77;;;;;;;;;;5090274;28;20505;-63
2023/09/28 13:00:38;;;;;;;3.83;3.67;;;;;;;;;;5090131;28;20496;-63
2023/09/28 13:03:09;;;;;;;3.87;3.57;;;;;;;;;;5090380;28;20436;-63
2023/09/28 13:05:37;;;;;;;3.90;3.60;;;;;;;;;;5089695;28;20414;-63
2023/09/28 13:08:07;;;;;;;9.20;4.17;;;;;;;;;;5089760;28;20409;-63
2023/09/28 13:10:34;;;;;;;8.50;4.00;;;;;;;;;;5089901;28;20456;-63
2023/09/28 13:13:00;;;;;;;4.00;3.80;;;;;;;;;;5090892;28;20761;-63
2023/09/28 13:15:30;;;;;;;4.37;3.97;;;;;;;;;;5090230;28;20413;-63
2023/09/28 13:17:57;;;;;;;3.60;3.50;;;;;;;;;;5088053;28;20439;-63
2023/09/28 13:20:28;;;;;;;3.83;3.60;;;;;;;;;;5087291;28;20433;-63
2023/09/28 13:22:55;;;;;;;6.43;4.07;;;;;;;;;;5089315;28;20884;-63
2023/09/28 13:25:26;;;;;;;5.00;3.90;;;;;;;;;;5089097;28;20424;-63
2023/09/28 13:27:52;;;;;;;4.37;3.87;;;;;;;;;;5090115;28;20425;-63
2023/09/28 13:30:24;;;;;;;4.33;3.53;;;;;;;;;;5090211;28;20429;-63
2023/09/28 13:32:54;;;;;;;3.80;3.60;;;;;;;;;;5090878;28;20421;-63
2023/09/28 13:35:23;;;;;;;4.07;3.50;;;;;;;;;;5091792;28;20413;-63
2023/09/28 13:37:51;;;;;;;6.60;3.57;;;;;;;;;;5090568;28;20507;-63
2023/09/28 13:40:26;;;;;;;7.10;3.47;;;;;;;;;;5091747;28;20413;-63
2023/09/28 13:42:56;;;;;;;4.03;3.80;;;;;;;;;;5091369;28;20492;-64
2023/09/28 13:45:25;;;;;;;4.30;3.93;;;;;;;;;;5090467;28;20421;-63
2023/09/28 13:47:51;;;;;;;6.70;3.60;;;;;;;;;;5093599;28;20397;-63
2023/09/28 13:50:17;;;;;;;4.50;4.20;;;;;;;;;;5095350;28;20409;-63
2023/09/28 13:52:46;;;;;;;5.07;3.70;;;;;;;;;;5095172;28;20452;-64
2023/09/28 13:55:19;;;;;;;3.63;3.43;;;;;;;;;;5095233;28;20401;-63
2023/09/28 13:57:48;;;;;;;3.83;3.53;;;;;;;;;;5095568;28;20470;-63
2023/09/28 14:03:01;;;;;;;3.73;3.53;;;;;;;;;;5095328;28;20487;-64
2023/09/28 14:05:28;;;;;;;6.10;3.37;;;;;;;;;;5095439;28;20508;-64
2023/09/28 14:07:56;;;;;;;3.53;3.23;;;;;;;;;;5094878;28;20915;-63
2023/09/28 14:10:23;;;;;;;3.20;3.00;;;;;;;;;;5095047;28;20825;-63
2023/09/28 14:12:49;;;;;;;3.73;3.10;;;;;;;;;;5094893;28;20424;-63
2023/09/28 14:15:15;;;;;;;3.80;3.60;;;;;;;;;;5094766;28;20893;-64
2023/09/28 14:17:41;;;;;;;4.30;3.47;;;;;;;;;;5094931;28;20485;-63
2023/09/28 14:20:10;;;;;;;3.90;3.60;;;;;;;;;;5093122;28;20409;-64
2023/09/28 14:22:36;;;;;;;4.03;3.67;;;;;;;;;;5094953;28;20464;-64
2023/09/28 14:25:03;;;;;;;3.20;3.00;;;;;;;;;;5092571;28;20412;-63
2023/09/28 14:27:30;;;;;;;3.80;3.43;;;;;;;;;;5093459;28;20524;-64
2023/09/28 14:29:57;;;;;;;4.00;3.10;;;;;;;;;;5093551;28;20472;-64
2023/09/28 14:32:24;;;;;;;3.20;3.10;;;;;;;;;;5093431;28;20540;-64
2023/09/28 14:34:50;;;;;;;4.10;3.20;;;;;;;;;;5091731;28;20466;-64
2023/09/28 14:37:16;;;;;;;3.60;3.50;;;;;;;;;;5093464;28;20825;-64
2023/09/28 14:39:42;;;;;;;3.77;3.20;;;;;;;;;;5093440;28;20411;-64
2023/09/28 14:42:08;;;;;;;16.83;9.10;;;;;;;;;;5092346;28;20465;-67
2023/09/28 14:44:36;;;;;;;7.23;3.67;;;;;;;;;;5093059;28;20746;-65
2023/09/28 14:47:02;;;;;;;6.47;3.13;;;;;;;;;;5092593;28;20409;-65